Time;durP1;ratioP1;P1;durP2;ratioP2;P2;SDS_P1;SDS_P2;PMS_P1;PMS_P2;Temp;Humidity;BMP_temperature;BMP_pressure;BME280_temperature;BME280_humidity;BME280_pressure;Samples;Min_cycle;Max_cycle;Signal;HPM_P1;HPM_P2
2023/12/02 00:02:10;;;;;;;0.10;0.10;;;;;;;;;;5039082;28;20053;-75
2023/12/02 00:04:37;;;;;;;0.00;0.00;;;;;;;;;;5048183;28;20515;-75
2023/12/02 00:07:03;;;;;;;0.10;0.10;;;;;;;;;;5047358;28;20053;-75
2023/12/02 00:09:30;;;;;;;0.10;0.10;;;;;;;;;;5048216;28;20053;-75
2023/12/02 00:11:56;;;;;;;0.10;0.10;;;;;;;;;;5046075;28;20459;-75
2023/12/02 00:14:22;;;;;;;3.03;2.20;;;;;;;;;;5044765;28;20594;-75
2023/12/02 00:16:49;;;;;;;0.10;0.10;;;;;;;;;;5045140;28;20132;-75
2023/12/02 00:19:15;;;;;;;0.10;0.10;;;;;;;;;;5048165;28;20045;-75
2023/12/02 00:21:42;;;;;;;0.10;0.10;;;;;;;;;;5040933;28;20054;-75
2023/12/02 00:24:08;;;;;;;0.05;0.05;;;;;;;;;;5047373;28;20148;-75
2023/12/02 00:26:35;;;;;;;0.00;0.00;;;;;;;;;;5031019;28;20149;-75
2023/12/02 00:29:01;;;;;;;0.10;0.10;;;;;;;;;;5044611;28;20140;-75
2023/12/02 00:31:27;;;;;;;0.10;0.10;;;;;;;;;;5047015;28;20092;-75
2023/12/02 00:33:54;;;;;;;0.00;0.00;;;;;;;;;;5029311;28;21053;-75
2023/12/02 00:36:20;;;;;;;0.10;0.10;;;;;;;;;;5109581;22;20760;-78
2023/12/02 00:38:47;;;;;;;0.17;0.17;;;;;;;;;;5004292;28;20070;-79
2023/12/02 00:41:13;;;;;;;0.10;0.10;;;;;;;;;;4997819;28;20145;-79
2023/12/02 00:43:40;;;;;;;0.10;0.10;;;;;;;;;;5009245;28;20061;-79
2023/12/02 00:46:06;;;;;;;0.00;0.00;;;;;;;;;;4988864;28;20741;-79
2023/12/02 00:48:33;;;;;;;0.05;0.05;;;;;;;;;;4988599;28;20480;-79
2023/12/02 00:50:59;;;;;;;0.10;0.10;;;;;;;;;;4992678;28;20080;-79
2023/12/02 00:53:26;;;;;;;0.10;0.10;;;;;;;;;;4996510;28;20051;-79
2023/12/02 00:55:52;;;;;;;0.10;0.10;;;;;;;;;;4989309;28;20866;-79
2023/12/02 00:58:18;;;;;;;0.10;0.10;;;;;;;;;;4986704;28;20047;-79
2023/12/02 01:00:57;;;;;;;0.00;0.00;;;;;;;;;;5004518;28;20889;-79
2023/12/02 01:03:23;;;;;;;0.10;0.10;;;;;;;;;;5007922;28;20062;-79
2023/12/02 01:05:50;;;;;;;0.10;0.10;;;;;;;;;;5008271;28;20101;-78
2023/12/02 01:08:16;;;;;;;0.05;0.05;;;;;;;;;;4985529;28;20062;-78
2023/12/02 01:10:43;;;;;;;1.13;1.13;;;;;;;;;;5008077;28;20632;-79
2023/12/02 01:13:09;;;;;;;0.10;0.10;;;;;;;;;;4992275;28;20440;-79
2023/12/02 01:15:36;;;;;;;0.10;0.10;;;;;;;;;;5002140;28;20066;-79
2023/12/02 01:18:02;;;;;;;0.10;0.10;;;;;;;;;;4994258;28;20054;-79
2023/12/02 01:20:29;;;;;;;0.00;0.00;;;;;;;;;;5002857;28;20509;-79
2023/12/02 01:22:55;;;;;;;0.00;0.00;;;;;;;;;;5008435;28;20069;-79
2023/12/02 01:25:21;;;;;;;0.00;0.00;;;;;;;;;;4992076;28;20105;-79
2023/12/02 01:27:51;;;;;;;0.00;0.00;;;;;;;;;;4993308;28;20524;-79
2023/12/02 01:30:17;;;;;;;0.00;0.00;;;;;;;;;;4989183;28;20149;-79
2023/12/02 01:32:44;;;;;;;0.03;0.03;;;;;;;;;;4985855;28;20117;-79
2023/12/02 01:35:10;;;;;;;0.10;0.10;;;;;;;;;;5005273;28;20062;-78
2023/12/02 01:37:36;;;;;;;0.10;0.10;;;;;;;;;;5002433;28;20042;-79
2023/12/02 01:40:03;;;;;;;0.10;0.10;;;;;;;;;;4989490;28;20481;-79
2023/12/02 01:42:29;;;;;;;0.10;0.10;;;;;;;;;;5000282;28;20520;-78
2023/12/02 01:44:57;;;;;;;0.10;0.10;;;;;;;;;;4998671;28;20444;-78
2023/12/02 01:47:23;;;;;;;0.00;0.00;;;;;;;;;;4989214;28;20054;-78
2023/12/02 01:49:50;;;;;;;0.00;0.00;;;;;;;;;;4985001;28;20611;-78
2023/12/02 01:52:17;;;;;;;0.10;0.10;;;;;;;;;;5001375;28;20055;-78
2023/12/02 01:54:43;;;;;;;0.10;0.10;;;;;;;;;;4989651;28;20550;-77
2023/12/02 01:57:10;;;;;;;0.10;0.10;;;;;;;;;;4992592;28;20062;-78
2023/12/02 01:59:42;;;;;;;0.10;0.10;;;;;;;;;;4985845;28;20596;-79
2023/12/02 02:02:08;;;;;;;0.10;0.10;;;;;;;;;;4998331;28;20137;-78
2023/12/02 02:04:34;;;;;;;0.10;0.10;;;;;;;;;;4987428;28;20137;-78
2023/12/02 02:07:01;;;;;;;0.08;0.08;;;;;;;;;;4985841;28;20054;-78
2023/12/02 02:09:32;;;;;;;0.10;0.10;;;;;;;;;;4986862;28;20054;-79
2023/12/02 02:11:59;;;;;;;0.10;0.10;;;;;;;;;;5003531;28;20054;-79
2023/12/02 02:14:25;;;;;;;0.88;0.68;;;;;;;;;;5006823;28;21352;-79
2023/12/02 02:16:52;;;;;;;0.10;0.10;;;;;;;;;;4993193;28;20564;-79
2023/12/02 02:19:18;;;;;;;0.10;0.10;;;;;;;;;;5009891;28;20065;-79
2023/12/02 02:21:49;;;;;;;0.10;0.10;;;;;;;;;;5008766;28;20065;-78
2023/12/02 02:24:16;;;;;;;0.10;0.10;;;;;;;;;;4982402;28;20142;-78
2023/12/02 02:26:42;;;;;;;0.10;0.10;;;;;;;;;;5006818;28;20054;-78
2023/12/02 02:29:09;;;;;;;0.10;0.10;;;;;;;;;;5014700;28;20069;-79
2023/12/02 02:31:35;;;;;;;0.10;0.10;;;;;;;;;;5005936;28;20141;-79
2023/12/02 02:34:02;;;;;;;0.10;0.10;;;;;;;;;;4992771;28;20133;-79
2023/12/02 02:36:28;;;;;;;0.10;0.10;;;;;;;;;;4984983;28;20058;-78
2023/12/02 02:38:55;;;;;;;0.10;0.10;;;;;;;;;;5003872;28;20062;-79
2023/12/02 02:41:21;;;;;;;0.10;0.10;;;;;;;;;;5002355;28;20050;-79
2023/12/02 02:43:48;;;;;;;0.00;0.00;;;;;;;;;;5004746;28;20061;-78
2023/12/02 02:46:14;;;;;;;0.05;0.05;;;;;;;;;;5000397;28;20058;-79
2023/12/02 02:48:40;;;;;;;0.10;0.10;;;;;;;;;;4993542;28;20105;-79
2023/12/02 02:51:07;;;;;;;0.10;0.10;;;;;;;;;;5001254;28;20051;-79
2023/12/02 02:53:33;;;;;;;0.10;0.10;;;;;;;;;;4989146;28;20056;-78
2023/12/02 02:56:00;;;;;;;0.10;0.10;;;;;;;;;;4991655;28;20480;-79
2023/12/02 02:58:28;;;;;;;0.00;0.00;;;;;;;;;;4977548;28;20590;-79
2023/12/02 03:00:55;;;;;;;0.10;0.10;;;;;;;;;;4999342;28;20063;-78
2023/12/02 03:03:21;;;;;;;0.10;0.10;;;;;;;;;;4994625;28;20165;-79
2023/12/02 03:05:48;;;;;;;0.10;0.10;;;;;;;;;;4996640;28;20070;-78
2023/12/02 03:08:15;;;;;;;0.10;0.10;;;;;;;;;;5007864;28;20113;-79
2023/12/02 03:10:41;;;;;;;0.10;0.10;;;;;;;;;;4990483;28;20116;-80
2023/12/02 03:13:08;;;;;;;0.10;0.10;;;;;;;;;;5011430;28;20133;-79
2023/12/02 03:15:34;;;;;;;0.00;0.00;;;;;;;;;;4992474;28;20046;-79
2023/12/02 03:18:01;;;;;;;0.10;0.10;;;;;;;;;;5005621;28;20059;-79
2023/12/02 03:20:27;;;;;;;1.65;1.58;;;;;;;;;;5008140;28;20057;-79
2023/12/02 03:22:54;;;;;;;0.00;0.00;;;;;;;;;;5008490;28;20058;-79
2023/12/02 03:25:20;;;;;;;0.00;0.00;;;;;;;;;;5007904;28;20920;-79
2023/12/02 03:27:47;;;;;;;0.10;0.10;;;;;;;;;;4991220;28;20137;-79
2023/12/02 03:30:13;;;;;;;0.10;0.10;;;;;;;;;;4991605;28;20058;-80
2023/12/02 03:32:40;;;;;;;0.00;0.00;;;;;;;;;;4988414;28;20145;-80
2023/12/02 03:35:07;;;;;;;0.10;0.10;;;;;;;;;;5004132;28;20555;-79
2023/12/02 03:37:34;;;;;;;0.10;0.10;;;;;;;;;;5007762;28;20136;-79
2023/12/02 03:40:05;;;;;;;0.00;0.00;;;;;;;;;;4993772;28;20085;-79
2023/12/02 03:42:31;;;;;;;0.00;0.00;;;;;;;;;;5005117;28;20051;-78
2023/12/02 03:44:58;;;;;;;0.05;0.05;;;;;;;;;;5004391;28;20055;-79
2023/12/02 03:47:24;;;;;;;0.00;0.00;;;;;;;;;;4989153;28;20057;-79
2023/12/02 03:49:51;;;;;;;0.00;0.00;;;;;;;;;;4990900;28;20058;-79
2023/12/02 03:52:17;;;;;;;0.10;0.10;;;;;;;;;;4990778;28;20054;-79
2023/12/02 03:54:44;;;;;;;0.00;0.00;;;;;;;;;;4990907;28;20061;-79
2023/12/02 03:57:10;;;;;;;0.00;0.00;;;;;;;;;;5004985;28;20506;-78
2023/12/02 03:59:37;;;;;;;0.00;0.00;;;;;;;;;;5007839;28;20149;-79
2023/12/02 04:02:03;;;;;;;0.00;0.00;;;;;;;;;;4999829;28;20057;-79
2023/12/02 04:04:30;;;;;;;0.10;0.10;;;;;;;;;;5007664;28;20110;-79
2023/12/02 04:06:56;;;;;;;0.00;0.00;;;;;;;;;;5007842;28;20059;-79
2023/12/02 04:09:22;;;;;;;0.00;0.00;;;;;;;;;;5008491;28;20058;-79
2023/12/02 04:11:49;;;;;;;0.10;0.10;;;;;;;;;;5007167;28;20054;-79
2023/12/02 04:14:15;;;;;;;0.00;0.00;;;;;;;;;;5006610;28;20054;-80
2023/12/02 04:16:42;;;;;;;0.00;0.00;;;;;;;;;;4990948;28;20106;-80
2023/12/02 04:19:09;;;;;;;0.00;0.00;;;;;;;;;;4991244;28;20496;-79
2023/12/02 04:21:36;;;;;;;5.13;1.85;;;;;;;;;;5007344;28;20054;-79
2023/12/02 04:24:03;;;;;;;0.10;0.10;;;;;;;;;;5004591;28;20061;-79
2023/12/02 04:26:29;;;;;;;0.00;0.00;;;;;;;;;;4990273;28;20054;-79
2023/12/02 04:28:56;;;;;;;0.10;0.10;;;;;;;;;;5005280;28;20051;-79
2023/12/02 04:31:22;;;;;;;0.10;0.10;;;;;;;;;;5012327;28;20511;-79
2023/12/02 04:33:48;;;;;;;0.00;0.00;;;;;;;;;;5002915;28;20054;-78
2023/12/02 04:36:15;;;;;;;0.10;0.10;;;;;;;;;;5005967;28;20056;-78
2023/12/02 04:38:41;;;;;;;0.00;0.00;;;;;;;;;;5007075;28;20113;-79
2023/12/02 04:41:08;;;;;;;0.00;0.00;;;;;;;;;;4984625;28;20134;-78
2023/12/02 04:43:34;;;;;;;0.08;0.08;;;;;;;;;;5000577;28;20144;-78
2023/12/02 04:46:00;;;;;;;0.00;0.00;;;;;;;;;;4998434;28;20108;-78
2023/12/02 04:48:27;;;;;;;0.20;0.17;;;;;;;;;;5006211;28;20104;-78
2023/12/02 04:50:53;;;;;;;0.10;0.10;;;;;;;;;;4995040;28;20054;-78
2023/12/02 04:53:20;;;;;;;0.10;0.10;;;;;;;;;;5008162;28;20157;-78
2023/12/02 04:55:47;;;;;;;0.00;0.00;;;;;;;;;;4988132;28;20070;-78
2023/12/02 04:58:13;;;;;;;0.03;0.03;;;;;;;;;;4991527;28;20057;-78
2023/12/02 05:00:40;;;;;;;0.00;0.00;;;;;;;;;;5007557;28;20540;-78
2023/12/02 05:03:06;;;;;;;0.00;0.00;;;;;;;;;;4994535;28;20066;-78
2023/12/02 05:05:33;;;;;;;0.00;0.00;;;;;;;;;;4991167;28;20054;-78
2023/12/02 05:08:03;;;;;;;0.10;0.10;;;;;;;;;;4997084;28;20062;-78
2023/12/02 05:10:30;;;;;;;0.10;0.10;;;;;;;;;;5001390;28;20109;-78
2023/12/02 05:12:56;;;;;;;0.00;0.00;;;;;;;;;;5006001;28;20086;-78
2023/12/02 05:15:23;;;;;;;0.10;0.10;;;;;;;;;;5005686;28;20567;-78
2023/12/02 05:17:50;;;;;;;0.40;0.40;;;;;;;;;;5007905;28;20062;-78
2023/12/02 05:20:19;;;;;;;0.10;0.10;;;;;;;;;;4994180;28;20070;-78
2023/12/02 05:22:45;;;;;;;0.10;0.10;;;;;;;;;;5011785;28;20559;-78
2023/12/02 05:25:16;;;;;;;0.10;0.10;;;;;;;;;;4986075;28;20059;-78
2023/12/02 05:27:42;;;;;;;0.00;0.00;;;;;;;;;;4992121;28;20054;-77
2023/12/02 05:30:09;;;;;;;0.10;0.10;;;;;;;;;;4986172;28;20058;-77
2023/12/02 05:32:36;;;;;;;0.10;0.10;;;;;;;;;;4998951;28;20137;-78
2023/12/02 05:35:03;;;;;;;0.10;0.10;;;;;;;;;;5004687;28;20061;-79
2023/12/02 05:37:29;;;;;;;0.10;0.10;;;;;;;;;;5007443;28;20054;-79
2023/12/02 05:39:55;;;;;;;0.10;0.10;;;;;;;;;;4989122;28;20141;-78
2023/12/02 05:42:22;;;;;;;0.03;0.03;;;;;;;;;;5006513;28;20133;-78
2023/12/02 05:44:48;;;;;;;0.10;0.10;;;;;;;;;;5004355;28;20548;-78
2023/12/02 05:47:15;;;;;;;0.10;0.10;;;;;;;;;;5007246;28;20558;-79
2023/12/02 05:49:42;;;;;;;0.10;0.10;;;;;;;;;;5017141;28;20058;-78
2023/12/02 05:52:08;;;;;;;0.10;0.10;;;;;;;;;;4995381;28;20559;-78
2023/12/02 05:54:34;;;;;;;0.10;0.10;;;;;;;;;;5006181;28;20137;-79
2023/12/02 05:57:01;;;;;;;0.10;0.10;;;;;;;;;;5011103;28;20803;-78
2023/12/02 05:59:28;;;;;;;0.10;0.10;;;;;;;;;;5000921;28;20061;-78
2023/12/02 06:01:54;;;;;;;0.10;0.10;;;;;;;;;;4992989;28;20523;-76
2023/12/02 06:04:21;;;;;;;0.00;0.00;;;;;;;;;;5004858;28;20058;-77
2023/12/02 06:06:48;;;;;;;0.08;0.08;;;;;;;;;;5009911;28;20058;-78
2023/12/02 06:09:14;;;;;;;0.00;0.00;;;;;;;;;;4999892;28;20059;-78
2023/12/02 06:11:41;;;;;;;0.00;0.00;;;;;;;;;;5009889;28;20060;-79
2023/12/02 06:14:08;;;;;;;0.10;0.10;;;;;;;;;;4995442;28;20050;-78
2023/12/02 06:16:35;;;;;;;0.55;0.55;;;;;;;;;;4996392;28;20537;-78
2023/12/02 06:19:02;;;;;;;0.10;0.10;;;;;;;;;;4998646;28;20080;-78
2023/12/02 06:21:28;;;;;;;0.35;0.35;;;;;;;;;;5009472;28;20278;-78
2023/12/02 06:23:55;;;;;;;0.00;0.00;;;;;;;;;;5002012;28;20101;-78
2023/12/02 06:26:22;;;;;;;0.10;0.10;;;;;;;;;;5010488;28;20065;-78
2023/12/02 06:28:49;;;;;;;0.00;0.00;;;;;;;;;;4990928;28;20058;-78
2023/12/02 06:31:17;;;;;;;0.20;0.20;;;;;;;;;;5001120;28;20054;-77
2023/12/02 06:33:43;;;;;;;0.00;0.00;;;;;;;;;;5003206;28;20062;-78
2023/12/02 06:36:10;;;;;;;0.08;0.08;;;;;;;;;;4982114;28;20061;-78
2023/12/02 06:38:36;;;;;;;0.00;0.00;;;;;;;;;;5028960;23;20049;-75
2023/12/02 06:41:03;;;;;;;0.00;0.00;;;;;;;;;;5036267;28;20057;-76
2023/12/02 06:43:30;;;;;;;0.10;0.10;;;;;;;;;;5046409;28;20133;-76
2023/12/02 06:45:56;;;;;;;0.00;0.00;;;;;;;;;;5041389;28;20136;-76
2023/12/02 06:48:22;;;;;;;0.00;0.00;;;;;;;;;;5048598;28;20133;-76
2023/12/02 06:50:49;;;;;;;0.00;0.00;;;;;;;;;;5044855;28;20064;-76
2023/12/02 06:53:15;;;;;;;0.10;0.10;;;;;;;;;;5048783;28;20049;-76
2023/12/02 06:55:42;;;;;;;0.10;0.10;;;;;;;;;;5040930;28;20053;-76
2023/12/02 06:58:08;;;;;;;0.00;0.00;;;;;;;;;;5043564;28;20570;-76
2023/12/02 07:00:35;;;;;;;0.00;0.00;;;;;;;;;;5030367;28;20132;-76
2023/12/02 07:03:01;;;;;;;0.10;0.10;;;;;;;;;;5041834;28;20057;-76
2023/12/02 07:05:28;;;;;;;0.05;0.05;;;;;;;;;;5048298;28;20439;-76
2023/12/02 07:07:54;;;;;;;0.10;0.10;;;;;;;;;;5047229;28;20136;-76
2023/12/02 07:10:20;;;;;;;0.00;0.00;;;;;;;;;;5049345;28;20060;-76
2023/12/02 07:12:47;;;;;;;0.10;0.10;;;;;;;;;;5047838;28;20077;-76
2023/12/02 07:15:13;;;;;;;0.10;0.10;;;;;;;;;;5048650;28;20081;-76
2023/12/02 07:17:39;;;;;;;0.00;0.00;;;;;;;;;;5048075;28;20076;-76
2023/12/02 07:20:06;;;;;;;0.10;0.10;;;;;;;;;;5048837;28;20054;-76
2023/12/02 07:22:33;;;;;;;0.00;0.00;;;;;;;;;;5048400;28;20057;-76
2023/12/02 07:24:59;;;;;;;0.10;0.10;;;;;;;;;;5044407;28;20530;-76
2023/12/02 07:27:25;;;;;;;0.00;0.00;;;;;;;;;;5047879;28;20056;-76
2023/12/02 07:29:55;;;;;;;0.10;0.10;;;;;;;;;;5043355;28;20058;-76
2023/12/02 07:32:24;;;;;;;0.10;0.10;;;;;;;;;;5048392;28;20891;-76
2023/12/02 07:34:50;;;;;;;0.00;0.00;;;;;;;;;;5045384;28;20510;-76
2023/12/02 07:37:17;;;;;;;0.00;0.00;;;;;;;;;;5045333;28;20058;-76
2023/12/02 07:39:43;;;;;;;0.00;0.00;;;;;;;;;;5047512;28;20056;-76
2023/12/02 07:42:09;;;;;;;0.10;0.10;;;;;;;;;;5047442;28;20145;-76
2023/12/02 07:44:36;;;;;;;0.10;0.10;;;;;;;;;;5047288;28;20057;-76
2023/12/02 07:47:02;;;;;;;0.00;0.00;;;;;;;;;;5047632;28;20046;-76
2023/12/02 07:49:29;;;;;;;0.10;0.10;;;;;;;;;;5048270;28;20064;-76
2023/12/02 07:51:56;;;;;;;0.10;0.10;;;;;;;;;;5047395;28;20554;-75
2023/12/02 07:54:22;;;;;;;0.20;0.20;;;;;;;;;;5035974;28;20054;-75
2023/12/02 07:56:48;;;;;;;0.10;0.10;;;;;;;;;;5047487;28;20058;-76
2023/12/02 07:59:15;;;;;;;0.00;0.00;;;;;;;;;;5048674;28;20614;-76
2023/12/02 08:01:41;;;;;;;0.10;0.10;;;;;;;;;;5046708;28;20061;-75
2023/12/02 08:04:08;;;;;;;0.10;0.10;;;;;;;;;;5047049;28;20049;-75
2023/12/02 08:06:34;;;;;;;0.10;0.10;;;;;;;;;;5043905;28;20055;-75
2023/12/02 08:09:00;;;;;;;11.27;10.73;;;;;;;;;;5045168;28;20136;-75
2023/12/02 08:11:27;;;;;;;2.55;1.95;;;;;;;;;;5043002;28;20056;-76
2023/12/02 08:13:54;;;;;;;0.10;0.10;;;;;;;;;;5045987;28;20089;-76
2023/12/02 08:16:20;;;;;;;0.08;0.08;;;;;;;;;;5046945;28;20057;-76
2023/12/02 08:18:47;;;;;;;0.10;0.10;;;;;;;;;;5042651;28;20052;-75
2023/12/02 08:21:13;;;;;;;0.00;0.00;;;;;;;;;;5042374;28;20053;-74
2023/12/02 08:23:39;;;;;;;0.05;0.05;;;;;;;;;;5044914;28;20053;-74
2023/12/02 08:26:06;;;;;;;0.10;0.10;;;;;;;;;;5046450;28;20133;-74
2023/12/02 08:28:32;;;;;;;0.10;0.10;;;;;;;;;;5044783;28;20060;-74
2023/12/02 08:30:59;;;;;;;0.00;0.00;;;;;;;;;;5046037;28;20470;-74
2023/12/02 08:33:25;;;;;;;0.08;0.08;;;;;;;;;;5046302;28;20049;-74
2023/12/02 08:35:52;;;;;;;0.05;0.05;;;;;;;;;;5045600;28;20061;-74
2023/12/02 08:38:18;;;;;;;0.85;0.85;;;;;;;;;;5045886;28;20053;-74
2023/12/02 08:40:44;;;;;;;0.10;0.10;;;;;;;;;;5044626;28;20080;-74
2023/12/02 08:43:11;;;;;;;0.00;0.00;;;;;;;;;;5045792;28;20069;-74
2023/12/02 08:45:37;;;;;;;0.00;0.00;;;;;;;;;;5043811;28;20054;-74
2023/12/02 08:48:03;;;;;;;0.10;0.10;;;;;;;;;;5039723;28;21489;-74
2023/12/02 08:50:30;;;;;;;0.08;0.08;;;;;;;;;;5043213;28;20503;-74
2023/12/02 08:52:56;;;;;;;0.22;0.22;;;;;;;;;;5045917;28;20796;-74
2023/12/02 08:55:23;;;;;;;0.00;0.00;;;;;;;;;;5046194;28;20060;-74
2023/12/02 08:57:49;;;;;;;0.00;0.00;;;;;;;;;;5043211;28;20111;-74
2023/12/02 09:00:16;;;;;;;0.10;0.10;;;;;;;;;;5024232;28;20054;-74
2023/12/02 09:02:42;;;;;;;0.10;0.10;;;;;;;;;;5029366;28;20057;-74
2023/12/02 09:05:08;;;;;;;0.10;0.10;;;;;;;;;;5038289;28;20060;-74
2023/12/02 09:07:35;;;;;;;0.10;0.10;;;;;;;;;;5044998;28;20056;-74
2023/12/02 09:10:03;;;;;;;0.10;0.10;;;;;;;;;;5043466;28;20060;-75
2023/12/02 09:12:29;;;;;;;0.10;0.10;;;;;;;;;;5043378;28;20056;-74
2023/12/02 09:15:14;;;;;;;0.00;0.00;;;;;;;;;;5045820;28;20053;-74
2023/12/02 09:17:56;;;;;;;2.17;1.65;;;;;;;;;;5045565;28;20108;-74
2023/12/02 09:20:38;;;;;;;0.10;0.10;;;;;;;;;;5049747;28;20501;-74
2023/12/02 09:23:06;;;;;;;0.43;0.43;;;;;;;;;;5042932;28;20053;-73
2023/12/02 09:25:34;;;;;;;0.10;0.10;;;;;;;;;;5045317;28;20052;-74
2023/12/02 09:28:05;;;;;;;0.10;0.10;;;;;;;;;;5040720;28;20057;-74
2023/12/02 09:30:34;;;;;;;0.05;0.05;;;;;;;;;;5045208;28;20060;-74
2023/12/02 09:33:01;;;;;;;0.10;0.10;;;;;;;;;;5044944;28;20132;-74
2023/12/02 09:35:27;;;;;;;0.10;0.10;;;;;;;;;;5045696;28;20084;-74
2023/12/02 09:37:55;;;;;;;0.00;0.00;;;;;;;;;;5036503;28;20053;-74
2023/12/02 09:40:22;;;;;;;0.10;0.10;;;;;;;;;;5043362;28;20100;-74
2023/12/02 09:42:56;;;;;;;0.15;0.15;;;;;;;;;;5045083;28;20060;-74
2023/12/02 09:45:31;;;;;;;0.10;0.10;;;;;;;;;;5044771;28;20050;-73
2023/12/02 09:48:13;;;;;;;0.00;0.00;;;;;;;;;;5044207;28;20057;-74
2023/12/02 09:50:47;;;;;;;0.10;0.10;;;;;;;;;;5043853;28;20504;-74
2023/12/02 09:53:23;;;;;;;0.10;0.10;;;;;;;;;;5043587;28;20053;-73
2023/12/02 09:55:53;;;;;;;0.10;0.10;;;;;;;;;;5044955;28;20140;-74
2023/12/02 09:58:22;;;;;;;0.10;0.10;;;;;;;;;;5043168;28;20064;-74
2023/12/02 10:00:50;;;;;;;0.10;0.10;;;;;;;;;;5040591;28;20157;-75
2023/12/02 10:03:17;;;;;;;0.10;0.10;;;;;;;;;;5044759;28;20530;-74
2023/12/02 10:05:51;;;;;;;0.10;0.10;;;;;;;;;;5043481;28;20136;-74
2023/12/02 10:08:40;;;;;;;0.00;0.00;;;;;;;;;;5043718;28;20148;-73
2023/12/02 10:11:10;;;;;;;0.10;0.10;;;;;;;;;;5045088;28;20128;-73
2023/12/02 10:13:44;;;;;;;0.10;0.10;;;;;;;;;;5042844;28;20053;-74
2023/12/02 10:16:13;;;;;;;0.10;0.10;;;;;;;;;;5042964;28;20717;-73
2023/12/02 10:18:44;;;;;;;0.50;0.50;;;;;;;;;;5040117;28;20076;-73
2023/12/02 10:21:11;;;;;;;0.22;0.22;;;;;;;;;;5032994;28;20050;-72
2023/12/02 10:23:48;;;;;;;0.00;0.00;;;;;;;;;;5044425;28;20053;-73
2023/12/02 10:26:16;;;;;;;0.10;0.10;;;;;;;;;;5045209;28;20374;-72
2023/12/02 10:28:45;;;;;;;0.10;0.10;;;;;;;;;;5045695;28;20057;-74
2023/12/02 10:31:18;;;;;;;0.10;0.10;;;;;;;;;;5043928;28;20526;-73
2023/12/02 10:34:03;;;;;;;0.00;0.00;;;;;;;;;;5044965;28;20136;-72
2023/12/02 10:36:32;;;;;;;0.00;0.00;;;;;;;;;;5048499;28;20057;-72
2023/12/02 10:39:10;;;;;;;1.02;1.02;;;;;;;;;;5048095;28;20057;-73
2023/12/02 10:41:50;;;;;;;3.17;2.97;;;;;;;;;;5045369;28;20141;-72
2023/12/02 10:44:20;;;;;;;0.70;0.70;;;;;;;;;;5048392;28;20081;-72
2023/12/02 10:46:47;;;;;;;0.03;0.03;;;;;;;;;;5051212;28;20060;-72
2023/12/02 10:49:14;;;;;;;0.10;0.10;;;;;;;;;;5056254;28;20053;-72
2023/12/02 10:51:42;;;;;;;0.10;0.10;;;;;;;;;;5047398;28;20184;-72
2023/12/02 10:54:11;;;;;;;0.10;0.10;;;;;;;;;;5046868;28;20245;-72
2023/12/02 10:56:39;;;;;;;0.10;0.10;;;;;;;;;;5043043;28;20053;-72
2023/12/02 10:59:05;;;;;;;0.10;0.10;;;;;;;;;;5044911;28;20061;-72
2023/12/02 11:01:52;;;;;;;0.32;0.30;;;;;;;;;;5044781;28;20057;-73
2023/12/02 11:04:22;;;;;;;0.00;0.00;;;;;;;;;;5039726;28;20101;-72
2023/12/02 11:06:50;;;;;;;0.10;0.10;;;;;;;;;;5044288;28;20057;-72
2023/12/02 11:09:27;;;;;;;0.60;0.60;;;;;;;;;;5043308;28;20085;-72
2023/12/02 11:12:06;;;;;;;0.10;0.10;;;;;;;;;;5044432;28;20145;-72
2023/12/02 11:14:36;;;;;;;0.10;0.10;;;;;;;;;;5043891;28;20142;-73
2023/12/02 11:17:06;;;;;;;0.10;0.10;;;;;;;;;;5045868;28;20083;-73
2023/12/02 11:19:32;;;;;;;0.10;0.10;;;;;;;;;;5046374;28;20299;-72
2023/12/02 11:22:17;;;;;;;0.10;0.10;;;;;;;;;;5043531;28;20054;-73
2023/12/02 11:24:43;;;;;;;0.10;0.10;;;;;;;;;;5046643;28;20112;-73
2023/12/02 11:27:29;;;;;;;1.30;1.27;;;;;;;;;;5043783;28;20064;-72
2023/12/02 11:30:06;;;;;;;0.10;0.10;;;;;;;;;;5039535;28;20104;-73
2023/12/02 11:32:48;;;;;;;0.13;0.13;;;;;;;;;;5046338;28;20050;-72
2023/12/02 11:35:21;;;;;;;0.10;0.10;;;;;;;;;;5044730;28;20188;-72
2023/12/02 11:37:57;;;;;;;0.20;0.20;;;;;;;;;;5028661;28;20132;-73
2023/12/02 11:40:30;;;;;;;0.08;0.08;;;;;;;;;;5044554;28;20448;-73
2023/12/02 11:43:15;;;;;;;0.13;0.13;;;;;;;;;;5046320;28;20604;-72
2023/12/02 11:45:45;;;;;;;0.52;0.52;;;;;;;;;;5046503;28;20132;-73
2023/12/02 11:48:12;;;;;;;0.47;0.47;;;;;;;;;;5044214;28;20492;-72
2023/12/02 11:50:54;;;;;;;0.13;0.13;;;;;;;;;;5035803;28;20520;-73
2023/12/02 11:53:23;;;;;;;0.17;0.17;;;;;;;;;;5039553;28;20512;-72
2023/12/02 11:55:52;;;;;;;0.20;0.20;;;;;;;;;;5046452;28;20115;-73
2023/12/02 11:58:26;;;;;;;0.20;0.20;;;;;;;;;;5042919;28;20049;-73
2023/12/02 12:00:53;;;;;;;0.10;0.10;;;;;;;;;;5042853;28;20056;-72
2023/12/02 12:03:39;;;;;;;0.10;0.10;;;;;;;;;;5044762;28;20050;-72
2023/12/02 12:06:12;;;;;;;0.10;0.10;;;;;;;;;;5037575;28;20061;-73
2023/12/02 12:08:57;;;;;;;0.10;0.10;;;;;;;;;;5041781;28;20054;-73
2023/12/02 12:11:25;;;;;;;1.27;1.17;;;;;;;;;;5043276;28;20049;-73
2023/12/02 12:13:52;;;;;;;0.00;0.00;;;;;;;;;;5038617;28;20050;-73
2023/12/02 12:16:18;;;;;;;0.50;0.50;;;;;;;;;;5043387;28;20139;-72
2023/12/02 12:18:52;;;;;;;0.10;0.10;;;;;;;;;;5042141;28;20057;-73
2023/12/02 12:21:18;;;;;;;0.10;0.10;;;;;;;;;;5044740;28;20052;-72
2023/12/02 12:23:46;;;;;;;0.00;0.00;;;;;;;;;;5044691;28;20054;-72
2023/12/02 12:26:12;;;;;;;0.10;0.10;;;;;;;;;;5044989;28;20506;-72
2023/12/02 12:28:39;;;;;;;1.02;0.95;;;;;;;;;;5041602;28;20646;-72
2023/12/02 12:31:09;;;;;;;0.10;0.10;;;;;;;;;;5045520;28;20045;-72
2023/12/02 12:33:36;;;;;;;0.10;0.10;;;;;;;;;;5044960;28;20061;-72
2023/12/02 12:36:03;;;;;;;0.45;0.45;;;;;;;;;;5045169;28;20591;-72
2023/12/02 12:38:29;;;;;;;4.20;1.65;;;;;;;;;;5042926;28;20503;-72
2023/12/02 12:40:56;;;;;;;0.10;0.10;;;;;;;;;;5045242;28;20064;-72
2023/12/02 12:43:23;;;;;;;0.57;0.57;;;;;;;;;;5040283;28;20084;-73
2023/12/02 12:45:53;;;;;;;0.10;0.10;;;;;;;;;;5044649;28;20080;-72
2023/12/02 12:48:26;;;;;;;1.75;1.17;;;;;;;;;;5044120;28;20054;-72
2023/12/02 12:50:53;;;;;;;0.10;0.10;;;;;;;;;;5045217;28;20133;-72
2023/12/02 12:53:23;;;;;;;0.10;0.10;;;;;;;;;;5097638;22;20141;-73
2023/12/02 12:55:53;;;;;;;0.10;0.10;;;;;;;;;;4979332;28;20145;-74
2023/12/02 12:58:21;;;;;;;0.17;0.17;;;;;;;;;;4979546;28;20078;-74
2023/12/02 13:00:50;;;;;;;0.10;0.10;;;;;;;;;;4984005;28;20082;-77
2023/12/02 13:03:25;;;;;;;0.10;0.10;;;;;;;;;;4983311;28;20058;-74
2023/12/02 13:06:02;;;;;;;0.20;0.20;;;;;;;;;;4980672;28;20059;-75
2023/12/02 13:08:37;;;;;;;1.15;1.15;;;;;;;;;;4982023;28;20051;-75
2023/12/02 13:11:06;;;;;;;0.10;0.10;;;;;;;;;;4982834;28;20454;-74
2023/12/02 13:13:51;;;;;;;0.10;0.10;;;;;;;;;;4985464;28;20059;-75
2023/12/02 13:16:20;;;;;;;0.10;0.10;;;;;;;;;;4983837;28;20446;-72
2023/12/02 13:18:46;;;;;;;0.05;0.05;;;;;;;;;;4973321;28;20137;-72
2023/12/02 13:21:14;;;;;;;1.05;1.05;;;;;;;;;;4983451;28;20153;-76
2023/12/02 13:23:41;;;;;;;0.25;0.25;;;;;;;;;;4985183;28;20057;-74
2023/12/02 13:26:07;;;;;;;0.20;0.20;;;;;;;;;;4977653;28;21139;-76
2023/12/02 13:28:37;;;;;;;0.10;0.10;;;;;;;;;;4968928;28;20054;-75
2023/12/02 13:31:05;;;;;;;0.10;0.10;;;;;;;;;;4984837;28;20059;-73
2023/12/02 13:33:48;;;;;;;0.10;0.10;;;;;;;;;;4984751;28;20058;-73
2023/12/02 13:36:26;;;;;;;0.10;0.10;;;;;;;;;;4973624;28;20054;-74
2023/12/02 13:38:55;;;;;;;0.10;0.10;;;;;;;;;;4984957;28;20960;-73
2023/12/02 13:41:25;;;;;;;0.10;0.10;;;;;;;;;;4982631;28;20070;-74
2023/12/02 13:43:53;;;;;;;0.10;0.10;;;;;;;;;;4982932;28;20062;-73
2023/12/02 13:46:21;;;;;;;0.10;0.10;;;;;;;;;;4982477;28;20059;-73
2023/12/02 13:48:54;;;;;;;0.77;0.65;;;;;;;;;;4982334;28;20055;-73
2023/12/02 13:51:28;;;;;;;0.10;0.10;;;;;;;;;;4985379;28;20058;-73
2023/12/02 13:54:20;;;;;;;1.20;1.10;;;;;;;;;;4989051;28;20086;-73
2023/12/02 13:56:54;;;;;;;0.10;0.10;;;;;;;;;;4984181;28;20061;-74
2023/12/02 13:59:23;;;;;;;0.20;0.20;;;;;;;;;;4982211;28;20151;-73
2023/12/02 14:01:49;;;;;;;0.20;0.20;;;;;;;;;;4959437;28;20055;-76
2023/12/02 14:04:19;;;;;;;0.15;0.15;;;;;;;;;;4985055;28;20055;-74
2023/12/02 14:06:46;;;;;;;0.10;0.10;;;;;;;;;;4980473;28;20054;-76
2023/12/02 14:09:19;;;;;;;0.10;0.10;;;;;;;;;;4979711;28;20058;-74
2023/12/02 14:12:04;;;;;;;0.30;0.30;;;;;;;;;;4983223;28;20058;-76
2023/12/02 14:14:33;;;;;;;2.55;2.35;;;;;;;;;;4983132;28;20055;-75
2023/12/02 14:17:00;;;;;;;0.10;0.10;;;;;;;;;;4983655;28;20054;-75
2023/12/02 14:19:27;;;;;;;0.10;0.10;;;;;;;;;;4986728;28;20101;-75
2023/12/02 14:22:15;;;;;;;0.00;0.00;;;;;;;;;;4980407;28;20057;-75
2023/12/02 14:25:07;;;;;;;0.10;0.10;;;;;;;;;;4984350;28;20141;-73
2023/12/02 14:27:40;;;;;;;0.57;0.57;;;;;;;;;;4950061;28;20106;-74
2023/12/02 14:30:06;;;;;;;0.57;0.57;;;;;;;;;;4988748;28;20073;-74
2023/12/02 14:33:01;;;;;;;0.10;0.10;;;;;;;;;;4986916;28;20521;-74
2023/12/02 14:35:42;;;;;;;0.20;0.20;;;;;;;;;;4981501;28;20134;-74
2023/12/02 14:38:27;;;;;;;0.40;0.40;;;;;;;;;;4984630;28;20066;-76
2023/12/02 14:41:02;;;;;;;0.05;0.05;;;;;;;;;;4983884;28;21199;-74
2023/12/02 14:43:43;;;;;;;0.10;0.10;;;;;;;;;;4988937;28;20173;-75
2023/12/02 14:46:10;;;;;;;0.10;0.10;;;;;;;;;;4979887;28;20369;-77
2023/12/02 14:48:38;;;;;;;0.10;0.10;;;;;;;;;;4986529;28;20050;-75
2023/12/02 14:51:07;;;;;;;0.10;0.10;;;;;;;;;;4985829;28;20059;-75
2023/12/02 14:53:36;;;;;;;0.10;0.10;;;;;;;;;;4969461;28;20161;-74